Aviation Digital Data Service (ADDS)

Output produced by METARs form (0253 UTC 25 February 2021)
found at http://www.aviationweather.gov/metar/data/
 
KILG 250151Z 14004KT 10SM CLR 06/01 A2983 RMK AO2 SLP100 T00560011 $
KILG 242320Z 2500/2524 18010KT P6SM SCT200 WS020/21045KT 
     FM250300 21008KT P6SM BKN150 WS020/24045KT 
     FM250600 27012G20KT P6SM BKN080 
     FM251000 30008KT P6SM SCT150 
     FM251300 31010G18KT P6SM SCT250 
     FM252000 31010KT P6SM SKC